createdAt,value
2023-05-10T00:02:04.254Z,4.60
2023-05-10T00:04:32.576Z,4.50
2023-05-10T00:07:00.475Z,4.00
2023-05-10T00:09:28.571Z,4.60
2023-05-10T00:11:59.457Z,4.90
2023-05-10T00:14:27.320Z,5.00
2023-05-10T00:16:55.487Z,4.20
2023-05-10T00:19:23.748Z,4.70
2023-05-10T00:21:52.195Z,4.50
2023-05-10T00:24:20.263Z,4.80
2023-05-10T00:26:48.236Z,4.20
2023-05-10T00:29:16.340Z,3.80
2023-05-10T00:31:45.187Z,4.00
2023-05-10T00:34:13.188Z,4.30
2023-05-10T00:36:41.534Z,4.00
2023-05-10T00:39:09.782Z,4.00
2023-05-10T00:41:37.860Z,4.30
2023-05-10T00:44:06.533Z,3.80
2023-05-10T00:46:34.660Z,3.70
2023-05-10T00:49:02.706Z,4.00
2023-05-10T00:51:32.331Z,3.50
2023-05-10T00:54:00.912Z,3.90
2023-05-10T00:56:30.710Z,3.90
2023-05-10T00:58:58.639Z,3.50
2023-05-10T01:01:26.847Z,4.10
2023-05-10T01:03:55.468Z,3.80
2023-05-10T01:06:23.404Z,3.60
2023-05-10T01:08:51.653Z,4.00
2023-05-10T01:11:19.709Z,3.90
2023-05-10T01:13:51.354Z,3.40
2023-05-10T01:16:19.613Z,3.30
2023-05-10T01:18:49.553Z,4.30
2023-05-10T01:21:18.291Z,3.80
2023-05-10T01:23:49.346Z,3.20
2023-05-10T01:26:34.548Z,3.40
2023-05-10T01:29:18.253Z,3.60
2023-05-10T01:31:52.235Z,4.30
2023-05-10T01:34:28.725Z,3.50
2023-05-10T01:37:07.079Z,3.30
2023-05-10T01:39:42.928Z,3.30
2023-05-10T01:42:11.133Z,3.20
2023-05-10T01:44:39.164Z,3.30
2023-05-10T01:47:11.911Z,3.40
2023-05-10T01:52:10.579Z,3.00
2023-05-10T01:54:44.042Z,3.20
2023-05-10T01:57:15.183Z,3.40
2023-05-10T01:59:44.651Z,3.50
2023-05-10T02:02:13.351Z,3.20
2023-05-10T02:04:41.937Z,3.50
2023-05-10T02:07:10.714Z,3.10
2023-05-10T02:09:39.226Z,3.50
2023-05-10T02:12:07.945Z,3.70
2023-05-10T02:14:37.752Z,3.30
2023-05-10T02:17:06.376Z,3.40
2023-05-10T02:19:35.277Z,3.20
2023-05-10T02:22:03.763Z,2.90
2023-05-10T02:24:33.112Z,3.40
2023-05-10T02:27:03.898Z,3.30
2023-05-10T02:29:32.551Z,3.10
2023-05-10T02:32:01.300Z,3.20
2023-05-10T02:34:30.064Z,3.40
2023-05-10T02:36:58.184Z,3.30
2023-05-10T02:39:29.775Z,3.10
2023-05-10T02:41:59.340Z,3.20
2023-05-10T02:44:28.643Z,2.90
2023-05-10T02:46:57.270Z,3.30
2023-05-10T02:49:25.160Z,2.90
2023-05-10T02:51:57.959Z,3.30
2023-05-10T02:54:28.675Z,3.20
2023-05-10T02:56:59.147Z,3.00
2023-05-10T02:59:27.427Z,3.00
2023-05-10T03:01:55.527Z,3.10
2023-05-10T03:04:24.142Z,3.10
2023-05-10T03:06:52.810Z,3.00
2023-05-10T03:09:22.277Z,3.70
2023-05-10T03:11:57.023Z,3.80
2023-05-10T03:14:44.593Z,2.80
2023-05-10T03:17:16.929Z,3.00
2023-05-10T03:19:56.305Z,3.50
2023-05-10T03:22:32.767Z,3.30
2023-05-10T03:25:01.565Z,3.40
2023-05-10T03:27:31.063Z,3.20
2023-05-10T03:30:01.808Z,3.40
2023-05-10T03:32:33.046Z,2.90
2023-05-10T03:35:01.355Z,3.40
2023-05-10T03:37:29.968Z,3.50
2023-05-10T03:39:58.142Z,2.90
2023-05-10T03:42:26.160Z,2.60
2023-05-10T03:44:54.320Z,3.10
2023-05-10T03:47:22.463Z,3.50
2023-05-10T03:49:50.355Z,2.50
2023-05-10T03:52:19.319Z,3.20
2023-05-10T03:54:47.442Z,2.60
2023-05-10T03:57:15.451Z,3.60
2023-05-10T03:59:43.374Z,3.60
2023-05-10T04:02:11.623Z,2.90
2023-05-10T04:04:39.661Z,3.40
2023-05-10T04:07:07.621Z,3.40
2023-05-10T04:09:36.260Z,3.40
2023-05-10T04:12:04.305Z,3.40
2023-05-10T04:14:34.453Z,3.40
2023-05-10T04:17:03.049Z,3.50
2023-05-10T04:19:31.645Z,3.50
2023-05-10T04:21:59.784Z,3.80
2023-05-10T04:24:27.782Z,4.20
2023-05-10T04:26:57.791Z,3.50
2023-05-10T04:29:26.112Z,3.60
2023-05-10T04:31:54.583Z,4.00
2023-05-10T04:34:22.698Z,4.00
2023-05-10T04:36:50.720Z,3.80
2023-05-10T04:39:19.124Z,3.80
2023-05-10T04:41:47.266Z,4.10
2023-05-10T04:44:15.312Z,4.00
2023-05-10T04:46:43.348Z,4.20
2023-05-10T04:49:11.441Z,3.90
2023-05-10T04:51:39.552Z,3.90
2023-05-10T04:54:07.500Z,3.50
2023-05-10T04:56:35.463Z,3.70
2023-05-10T04:59:03.726Z,3.50
2023-05-10T05:01:31.809Z,3.40
2023-05-10T05:04:00.624Z,3.40
2023-05-10T05:06:28.727Z,3.60
2023-05-10T05:08:56.716Z,4.10
2023-05-10T05:11:25.539Z,3.60
2023-05-10T05:13:56.917Z,3.50
2023-05-10T05:16:24.821Z,3.30
2023-05-10T05:31:58.415Z,3.80
2023-05-10T05:34:29.562Z,3.90
2023-05-10T05:36:58.838Z,3.30
2023-05-10T05:39:27.984Z,5.70
2023-05-10T05:41:55.930Z,3.40
2023-05-10T05:44:24.258Z,4.50
2023-05-10T05:46:52.172Z,3.60
2023-05-10T05:49:24.912Z,3.20
2023-05-10T05:51:54.724Z,3.40
2023-05-10T05:54:23.013Z,3.80
2023-05-10T05:56:52.961Z,3.80
2023-05-10T05:59:21.437Z,4.30
2023-05-10T06:01:52.260Z,3.90
2023-05-10T06:04:20.674Z,3.60
2023-05-10T06:06:50.609Z,4.00
2023-05-10T06:09:18.683Z,3.60
2023-05-10T06:11:49.404Z,4.10
2023-05-10T06:14:25.787Z,3.60
2023-05-10T06:16:53.990Z,3.70
2023-05-10T06:19:23.886Z,3.70
2023-05-10T06:21:53.720Z,3.30
2023-05-10T06:24:22.942Z,4.10
2023-05-10T06:26:53.009Z,3.60
2023-05-10T06:29:20.977Z,4.30
2023-05-10T06:31:52.006Z,2.80
2023-05-10T06:34:20.020Z,4.10
2023-05-10T06:36:47.913Z,3.10
2023-05-10T06:39:19.045Z,3.40
2023-05-10T06:41:49.455Z,2.80
2023-05-10T06:44:17.571Z,3.10
2023-05-10T06:46:48.580Z,3.50
2023-05-10T06:49:16.824Z,3.20
2023-05-10T06:51:45.122Z,2.80
2023-05-10T06:54:15.875Z,4.00
2023-05-10T06:56:43.902Z,3.00
2023-05-10T06:59:12.361Z,3.30
2023-05-10T07:01:43.640Z,2.90
2023-05-10T07:04:11.704Z,3.00
2023-05-10T07:06:39.868Z,3.10
2023-05-10T07:09:11.357Z,2.50
2023-05-10T07:11:42.164Z,2.70
2023-05-10T07:14:10.794Z,3.20
2023-05-10T07:16:38.873Z,2.60
2023-05-10T07:19:09.855Z,2.40
2023-05-10T07:21:41.584Z,2.70
2023-05-10T07:24:10.731Z,2.40
2023-05-10T07:26:41.252Z,2.90
2023-05-10T07:29:10.646Z,3.20
2023-05-10T07:32:08.956Z,2.60
2023-05-10T07:34:58.819Z,2.40
2023-05-10T07:37:26.809Z,2.40
2023-05-10T07:39:57.662Z,2.80
2023-05-10T07:43:26.573Z,2.10
2023-05-10T07:46:15.117Z,2.30
2023-05-10T07:49:11.003Z,2.50
2023-05-10T07:51:39.067Z,2.80
2023-05-10T07:54:08.778Z,2.50
2023-05-10T07:56:37.398Z,3.00
2023-05-10T07:59:08.928Z,3.10
2023-05-10T08:01:41.279Z,2.60
2023-05-10T08:04:09.993Z,2.50
2023-05-10T08:07:24.938Z,2.90
2023-05-10T08:10:24.005Z,3.00
2023-05-10T08:13:14.571Z,2.90
2023-05-10T08:15:45.539Z,3.00
2023-05-10T08:18:16.602Z,2.50
2023-05-10T08:20:47.234Z,2.90
2023-05-10T08:23:17.551Z,2.80
2023-05-10T08:25:45.812Z,3.00
2023-05-10T08:28:18.385Z,3.00
2023-05-10T08:30:49.504Z,3.00
2023-05-10T08:33:20.425Z,3.00
2023-05-10T08:35:51.208Z,3.20
2023-05-10T08:38:22.157Z,3.30
2023-05-10T08:40:51.903Z,3.10
2023-05-10T08:43:20.408Z,3.00
2023-05-10T08:45:49.930Z,2.80
2023-05-10T08:48:18.031Z,2.80
2023-05-10T08:50:46.354Z,2.60
2023-05-10T08:53:14.800Z,3.00
2023-05-10T08:56:04.815Z,3.00
2023-05-10T08:59:07.980Z,3.10
2023-05-10T09:02:01.268Z,2.70
2023-05-10T09:04:30.646Z,3.80
2023-05-10T09:06:58.864Z,3.90
2023-05-10T09:09:28.289Z,3.20
2023-05-10T09:11:56.536Z,3.00
2023-05-10T09:14:27.827Z,3.00
2023-05-10T09:16:56.559Z,3.60
2023-05-10T09:19:25.919Z,3.40
2023-05-10T09:21:57.206Z,3.00
2023-05-10T09:24:28.877Z,3.20
2023-05-10T09:26:58.351Z,2.90
2023-05-10T09:29:26.278Z,2.90
2023-05-10T09:31:57.402Z,3.50
2023-05-10T09:34:35.840Z,2.90
2023-05-10T09:37:09.675Z,3.00
2023-05-10T09:43:08.889Z,3.00
2023-05-10T09:43:21.961Z,2.80
2023-05-10T09:45:42.158Z,2.90
2023-05-10T09:48:10.369Z,3.40
2023-05-10T09:50:38.318Z,2.40
2023-05-10T09:53:08.155Z,2.30
2023-05-10T09:55:39.339Z,2.30
2023-05-10T09:58:13.236Z,2.10
2023-05-10T10:00:42.244Z,2.60
2023-05-10T10:03:17.370Z,2.30
2023-05-10T10:05:50.326Z,2.50
2023-05-10T10:08:18.417Z,2.20
2023-05-10T10:10:47.720Z,2.40
2023-05-10T10:13:16.633Z,3.00
2023-05-10T10:15:45.795Z,6.40
2023-05-10T10:18:18.785Z,5.60
2023-05-10T10:20:47.185Z,4.00
2023-05-10T10:23:19.920Z,3.00
2023-05-10T10:25:50.219Z,6.90
2023-05-10T10:28:22.751Z,4.00
2023-05-10T10:30:54.523Z,16.90
2023-05-10T10:33:30.622Z,4.80
2023-05-10T10:36:02.678Z,19.30
2023-05-10T10:41:09.117Z,3.90
2023-05-10T10:43:39.366Z,2.40
2023-05-10T10:46:14.923Z,2.10
2023-05-10T10:48:49.798Z,2.30
2023-05-10T10:54:58.115Z,3.80
2023-05-10T10:57:42.684Z,29.50
2023-05-10T11:00:29.360Z,17.20
2023-05-10T11:03:07.548Z,20.90
2023-05-10T11:05:41.740Z,17.10
2023-05-10T11:08:20.064Z,29.40
2023-05-10T11:11:08.304Z,6.10
2023-05-10T11:13:39.904Z,3.60
2023-05-10T11:16:14.714Z,7.60
2023-05-10T11:18:57.516Z,15.30
2023-05-10T11:21:25.813Z,17.70
2023-05-10T11:24:00.393Z,14.50
2023-05-10T11:28:59.617Z,22.20
2023-05-10T11:31:28.141Z,33.30
2023-05-10T11:33:57.658Z,9.90
2023-05-10T11:36:29.781Z,4.20
2023-05-10T11:38:57.906Z,3.70
2023-05-10T11:41:29.784Z,3.20
2023-05-10T11:43:58.574Z,2.70
2023-05-10T11:46:32.318Z,2.70
2023-05-10T11:49:08.423Z,2.30
2023-05-10T11:51:39.723Z,4.00
2023-05-10T11:54:09.965Z,3.30
2023-05-10T11:56:38.524Z,6.40
2023-05-10T11:59:06.884Z,2.80
2023-05-10T12:01:39.475Z,2.60
2023-05-10T12:04:07.700Z,3.00
2023-05-10T12:06:39.778Z,28.60
2023-05-10T12:09:09.044Z,17.50
2023-05-10T12:11:44.252Z,8.10
2023-05-10T12:14:16.528Z,3.00
2023-05-10T12:16:44.728Z,3.90
2023-05-10T12:19:14.498Z,4.50
2023-05-10T12:21:46.612Z,3.10
2023-05-10T12:26:49.452Z,2.60
2023-05-10T12:29:18.568Z,2.70
2023-05-10T12:31:59.747Z,2.50
2023-05-10T12:34:31.247Z,2.60
2023-05-10T12:36:59.328Z,2.90
2023-05-10T12:39:43.310Z,5.00
2023-05-10T12:42:11.615Z,2.90
2023-05-10T12:44:39.807Z,3.80
2023-05-10T12:47:10.348Z,2.30
2023-05-10T12:49:43.675Z,2.60
2023-05-10T12:52:11.682Z,4.10
2023-05-10T12:54:42.187Z,3.30
2023-05-10T12:57:11.320Z,2.50
2023-05-10T12:59:42.026Z,5.80
2023-05-10T13:02:13.156Z,11.80
2023-05-10T13:04:41.542Z,15.50
2023-05-10T13:07:10.179Z,23.60
2023-05-10T13:09:38.143Z,7.50
2023-05-10T13:12:10.120Z,2.90
2023-05-10T13:14:41.802Z,2.30
2023-05-10T13:17:12.887Z,3.50
2023-05-10T13:19:40.920Z,2.40
2023-05-10T13:22:12.137Z,2.30
2023-05-10T13:24:42.916Z,2.60
2023-05-10T13:27:11.176Z,3.00
2023-05-10T13:29:43.702Z,3.80
2023-05-10T13:32:15.430Z,2.70
2023-05-10T13:34:46.235Z,2.20
2023-05-10T13:37:16.263Z,2.50
2023-05-10T13:39:44.229Z,2.30
2023-05-10T13:42:12.313Z,2.40
2023-05-10T13:44:41.689Z,2.60
2023-05-10T13:47:09.597Z,2.40
2023-05-10T13:49:37.642Z,1.90
2023-05-10T13:52:08.012Z,2.20
2023-05-10T13:54:36.799Z,2.40
2023-05-10T13:57:05.617Z,4.60
2023-05-10T13:59:33.686Z,2.60
2023-05-10T14:02:03.629Z,2.30
2023-05-10T14:04:32.649Z,2.40
2023-05-10T14:07:03.774Z,1.90
2023-05-10T14:09:32.151Z,2.70
2023-05-10T14:12:00.050Z,2.20
2023-05-10T14:14:30.494Z,2.60
2023-05-10T14:16:58.467Z,2.70
2023-05-10T14:19:27.873Z,2.70
2023-05-10T14:21:57.037Z,2.50
2023-05-10T14:24:27.023Z,2.10
2023-05-10T14:26:55.273Z,2.30
2023-05-10T14:29:28.786Z,2.40
2023-05-10T14:31:57.056Z,2.40
2023-05-10T14:34:27.102Z,2.30
2023-05-10T14:36:55.288Z,2.00
2023-05-10T14:39:26.632Z,2.00
2023-05-10T14:41:57.876Z,2.10
2023-05-10T14:44:26.102Z,2.10
2023-05-10T14:46:54.388Z,2.70
2023-05-10T14:49:23.774Z,2.00
2023-05-10T14:51:51.978Z,2.50
2023-05-10T14:54:23.131Z,1.90
2023-05-10T14:56:51.112Z,2.70
2023-05-10T14:59:21.968Z,2.60
2023-05-10T15:01:50.762Z,2.60
2023-05-10T15:04:20.832Z,2.30
2023-05-10T15:06:49.302Z,2.20
2023-05-10T15:09:21.479Z,2.60
2023-05-10T15:11:52.147Z,2.90
2023-05-10T15:14:22.970Z,2.60
2023-05-10T15:16:53.809Z,2.30
2023-05-10T15:19:21.785Z,2.20
2023-05-10T15:21:50.030Z,2.00
2023-05-10T15:24:20.958Z,1.90
2023-05-10T15:26:52.035Z,2.60
2023-05-10T15:29:25.972Z,2.40
2023-05-10T15:31:59.049Z,2.90
2023-05-10T15:34:31.246Z,2.40
2023-05-10T15:37:03.281Z,2.30
2023-05-10T15:39:31.718Z,2.30
2023-05-10T15:42:02.711Z,2.40
2023-05-10T15:44:31.105Z,2.10
2023-05-10T15:47:03.858Z,2.50
2023-05-10T15:49:34.165Z,2.40
2023-05-10T15:52:02.094Z,1.90
2023-05-10T15:54:31.620Z,2.50
2023-05-10T15:57:00.205Z,2.40
2023-05-10T15:59:28.122Z,2.30
2023-05-10T16:01:58.278Z,3.10
2023-05-10T16:04:26.416Z,3.40
2023-05-10T16:06:54.351Z,3.90
2023-05-10T16:09:28.070Z,3.00
2023-05-10T16:11:59.002Z,3.70
2023-05-10T16:17:01.344Z,4.50
2023-05-10T16:19:34.093Z,4.30
2023-05-10T16:22:05.621Z,4.10
2023-05-10T16:24:33.735Z,4.10
2023-05-10T16:27:01.650Z,4.30
2023-05-10T16:29:29.989Z,3.70
2023-05-10T16:31:58.000Z,4.10
2023-05-10T16:34:25.971Z,3.90
2023-05-10T16:36:57.201Z,4.20
2023-05-10T16:41:55.462Z,4.10
2023-05-10T16:44:26.113Z,4.10
2023-05-10T16:46:55.034Z,4.20
2023-05-10T16:49:27.029Z,4.20
2023-05-10T16:51:55.306Z,3.60
2023-05-10T16:54:23.651Z,4.40
2023-05-10T16:56:52.064Z,3.90
2023-05-10T16:59:22.818Z,4.20
2023-05-10T17:01:53.558Z,5.20
2023-05-10T17:04:21.643Z,5.40
2023-05-10T17:06:49.670Z,4.30
2023-05-10T17:09:17.986Z,4.70
2023-05-10T17:11:48.640Z,4.00
2023-05-10T17:14:16.804Z,4.40
2023-05-10T17:16:49.518Z,4.60
2023-05-10T17:19:19.954Z,5.50
2023-05-10T17:21:47.966Z,4.90
2023-05-10T17:24:15.870Z,4.70
2023-05-10T17:26:46.273Z,4.50
2023-05-10T17:29:16.835Z,4.60
2023-05-10T17:31:44.865Z,5.50
2023-05-10T17:34:15.502Z,5.30
2023-05-10T17:36:44.961Z,5.30
2023-05-10T17:39:15.494Z,4.90
2023-05-10T17:41:43.606Z,4.70
2023-05-10T17:44:14.539Z,4.80
2023-05-10T17:46:42.497Z,4.50
2023-05-10T17:49:12.837Z,5.30
2023-05-10T17:51:44.069Z,5.30
2023-05-10T17:54:12.043Z,5.20
2023-05-10T17:56:43.721Z,4.80
2023-05-10T17:59:14.468Z,4.90
2023-05-10T18:01:43.957Z,5.30
2023-05-10T18:04:14.684Z,6.50
2023-05-10T18:06:50.014Z,5.80
2023-05-10T18:09:24.249Z,5.80
2023-05-10T18:11:52.459Z,7.70
2023-05-10T18:14:36.048Z,7.50
2023-05-10T18:17:09.318Z,7.30
2023-05-10T18:19:40.866Z,7.50
2023-05-10T18:22:10.823Z,6.70
2023-05-10T18:24:40.759Z,6.40
2023-05-10T18:27:09.254Z,6.20
2023-05-10T18:30:02.595Z,5.30
2023-05-10T18:36:02.574Z,4.90
2023-05-10T18:38:33.530Z,4.80
2023-05-10T18:41:05.892Z,4.50
2023-05-10T18:43:37.397Z,4.70
2023-05-10T18:46:05.798Z,4.20
2023-05-10T18:48:33.963Z,3.80
2023-05-10T18:51:03.326Z,4.50
2023-05-10T18:53:33.717Z,4.50
2023-05-10T18:56:01.707Z,4.20
2023-05-10T18:58:31.366Z,4.20
2023-05-10T19:00:59.369Z,4.10
2023-05-10T19:03:31.548Z,4.70
2023-05-10T19:06:01.808Z,4.10
2023-05-10T19:08:33.798Z,5.20
2023-05-10T19:11:06.514Z,4.20
2023-05-10T19:16:18.375Z,4.20
2023-05-10T19:18:58.361Z,4.90
2023-05-10T19:21:28.004Z,4.20
2023-05-10T19:24:00.267Z,4.20
2023-05-10T19:26:33.869Z,4.20
2023-05-10T19:29:04.144Z,4.80
2023-05-10T19:31:33.755Z,3.60
2023-05-10T19:34:03.661Z,4.70
2023-05-10T19:36:34.900Z,4.10
2023-05-10T19:39:03.547Z,4.00
2023-05-10T19:41:31.620Z,4.00
2023-05-10T19:43:59.946Z,4.70
2023-05-10T19:46:28.305Z,4.20
2023-05-10T19:48:56.503Z,4.80
2023-05-10T19:51:24.632Z,4.10
2023-05-10T19:53:52.773Z,5.40
2023-05-10T19:56:24.161Z,6.30
2023-05-10T19:58:52.113Z,4.30
2023-05-10T20:01:20.516Z,4.10
2023-05-10T20:03:48.608Z,4.40
2023-05-10T20:06:16.569Z,4.60
2023-05-10T20:08:44.798Z,3.80
2023-05-10T20:11:13.228Z,4.70
2023-05-10T20:13:43.409Z,4.20
2023-05-10T20:16:12.484Z,3.90
2023-05-10T20:18:43.035Z,3.50
2023-05-10T20:21:13.707Z,3.40
2023-05-10T20:23:44.917Z,3.40
2023-05-10T20:26:13.207Z,4.00
2023-05-10T20:28:42.868Z,3.70
2023-05-10T20:31:11.824Z,3.60
2023-05-10T20:33:44.200Z,3.20
2023-05-10T20:36:12.645Z,4.20
2023-05-10T20:38:43.513Z,3.90
2023-05-10T20:41:30.172Z,3.20
2023-05-10T20:44:37.860Z,3.40
2023-05-10T20:47:15.472Z,3.00
2023-05-10T20:49:46.469Z,3.20
2023-05-10T20:52:17.005Z,3.00
2023-05-10T20:54:45.091Z,4.10
2023-05-10T20:57:14.883Z,3.20
2023-05-10T20:59:43.222Z,3.40
2023-05-10T21:02:11.320Z,2.70
2023-05-10T21:04:39.248Z,3.00
2023-05-10T21:07:07.769Z,2.70
2023-05-10T21:09:37.883Z,3.10
2023-05-10T21:12:06.054Z,3.10
2023-05-10T21:14:37.031Z,2.90
2023-05-10T21:17:04.914Z,3.10
2023-05-10T21:19:35.752Z,3.30
2023-05-10T21:22:03.907Z,2.60
2023-05-10T21:24:33.131Z,2.70
2023-05-10T21:27:01.508Z,2.90
2023-05-10T21:29:32.197Z,3.40
2023-05-10T21:32:03.269Z,2.90
2023-05-10T21:34:33.783Z,3.10
2023-05-10T21:37:01.822Z,2.50
2023-05-10T21:39:32.780Z,2.80
2023-05-10T21:42:00.889Z,3.10
2023-05-10T21:44:34.124Z,3.20
2023-05-10T21:47:05.837Z,3.00
2023-05-10T21:49:33.766Z,3.60
2023-05-10T21:52:07.711Z,3.50
2023-05-10T21:54:39.262Z,2.80
2023-05-10T21:57:07.161Z,3.80
2023-05-10T21:59:37.497Z,3.20
2023-05-10T22:02:05.753Z,3.60
2023-05-10T22:04:34.787Z,3.10
2023-05-10T22:07:02.808Z,3.40
2023-05-10T22:09:30.892Z,3.40
2023-05-10T22:11:58.937Z,3.80
2023-05-10T22:14:26.822Z,3.10
2023-05-10T22:16:54.951Z,3.40
2023-05-10T22:19:25.376Z,3.40
2023-05-10T22:21:55.577Z,3.60
2023-05-10T22:24:25.405Z,3.90
2023-05-10T22:26:56.816Z,4.10
2023-05-10T22:29:27.604Z,3.80
2023-05-10T22:31:55.883Z,3.10
2023-05-10T22:34:29.129Z,3.10
2023-05-10T22:36:57.542Z,3.20
2023-05-10T22:39:25.674Z,3.50
2023-05-10T22:41:55.141Z,2.80
2023-05-10T22:44:26.219Z,3.20
2023-05-10T22:46:57.055Z,3.50
2023-05-10T22:49:27.451Z,3.40
2023-05-10T22:51:55.631Z,3.90
2023-05-10T22:54:23.514Z,3.20
2023-05-10T22:56:54.386Z,3.20
2023-05-10T22:59:25.004Z,3.10
2023-05-10T23:01:53.005Z,3.00
2023-05-10T23:04:20.964Z,3.30
2023-05-10T23:06:51.952Z,3.50
2023-05-10T23:09:27.148Z,3.40
2023-05-10T23:11:55.430Z,3.00
2023-05-10T23:14:46.262Z,3.20
2023-05-10T23:17:46.956Z,3.00
2023-05-10T23:22:57.932Z,3.00
2023-05-10T23:25:28.280Z,3.00
2023-05-10T23:27:56.958Z,2.80
2023-05-10T23:30:28.209Z,3.10
2023-05-10T23:32:58.994Z,3.60
2023-05-10T23:35:29.212Z,3.40
2023-05-10T23:37:57.523Z,3.20
2023-05-10T23:40:25.605Z,3.60
2023-05-10T23:42:53.858Z,3.80
2023-05-10T23:45:21.999Z,4.60
2023-05-10T23:47:52.205Z,3.30
2023-05-10T23:50:20.843Z,3.80
2023-05-10T23:52:48.854Z,3.30
2023-05-10T23:55:19.642Z,3.90
2023-05-10T23:57:56.665Z,3.20
